sensor_id;sensor_type;location;lat;lon;timestamp;pressure;altitude;pressure_sealevel;temperature
72054;BMP280;59918;51.280;7.950;2023-04-01T00:02:05;95905.44;;;8.49
72054;BMP280;59918;51.280;7.950;2023-04-01T00:04:30;95910.56;;;8.49
72054;BMP280;59918;51.280;7.950;2023-04-01T00:06:55;95907.44;;;8.47
72054;BMP280;59918;51.280;7.950;2023-04-01T00:09:21;95905.13;;;8.45
72054;BMP280;59918;51.280;7.950;2023-04-01T00:11:46;95906.38;;;8.43
72054;BMP280;59918;51.280;7.950;2023-04-01T00:14:14;95898.69;;;8.43
72054;BMP280;59918;51.280;7.950;2023-04-01T00:16:39;95896.63;;;8.40
72054;BMP280;59918;51.280;7.950;2023-04-01T00:19:04;95894.81;;;8.40
72054;BMP280;59918;51.280;7.950;2023-04-01T00:21:29;95901.97;;;8.38
72054;BMP280;59918;51.280;7.950;2023-04-01T00:23:55;95899.41;;;8.38
72054;BMP280;59918;51.280;7.950;2023-04-01T00:26:20;95894.50;;;8.37
72054;BMP280;59918;51.280;7.950;2023-04-01T00:28:45;95899.09;;;8.35
72054;BMP280;59918;51.280;7.950;2023-04-01T00:31:11;95893.19;;;8.35
72054;BMP280;59918;51.280;7.950;2023-04-01T00:33:36;95895.75;;;8.35
72054;BMP280;59918;51.280;7.950;2023-04-01T00:36:11;95886.50;;;8.34
72054;BMP280;59918;51.280;7.950;2023-04-01T00:38:37;95906.78;;;8.35
72054;BMP280;59918;51.280;7.950;2023-04-01T00:41:03;95883.19;;;8.33
72054;BMP280;59918;51.280;7.950;2023-04-01T00:43:28;95883.19;;;8.33
72054;BMP280;59918;51.280;7.950;2023-04-01T00:45:54;95894.19;;;8.34
72054;BMP280;59918;51.280;7.950;2023-04-01T00:48:20;95882.41;;;8.33
72054;BMP280;59918;51.280;7.950;2023-04-01T00:51:09;95870.59;;;8.32
72054;BMP280;59918;51.280;7.950;2023-04-01T00:53:32;95882.41;;;8.33
72054;BMP280;59918;51.280;7.950;2023-04-01T00:56:05;95883.41;;;8.32
72054;BMP280;59918;51.280;7.950;2023-04-01T00:58:32;95875.72;;;8.32
72054;BMP280;59918;51.280;7.950;2023-04-01T01:00:58;95880.09;;;8.31
72054;BMP280;59918;51.280;7.950;2023-04-01T01:03:24;95876.53;;;8.32
72054;BMP280;59918;51.280;7.950;2023-04-01T01:06:11;95876.53;;;8.32
72054;BMP280;59918;51.280;7.950;2023-04-01T01:08:52;95867.06;;;8.33
72054;BMP280;59918;51.280;7.950;2023-04-01T01:11:22;95880.41;;;8.35
72054;BMP280;59918;51.280;7.950;2023-04-01T01:13:58;95880.41;;;8.35
72054;BMP280;59918;51.280;7.950;2023-04-01T01:16:29;95878.84;;;8.34
72054;BMP280;59918;51.280;7.950;2023-04-01T01:19:10;95878.84;;;8.34
72054;BMP280;59918;51.280;7.950;2023-04-01T01:21:50;95883.72;;;8.35
72054;BMP280;59918;51.280;7.950;2023-04-01T01:27:06;95876.03;;;8.35
72054;BMP280;59918;51.280;7.950;2023-04-01T01:29:40;95856.31;;;8.36
72054;BMP280;59918;51.280;7.950;2023-04-01T01:37:10;95862.25;;;8.36
72054;BMP280;59918;51.280;7.950;2023-04-01T01:39:37;95853.75;;;8.36
72054;BMP280;59918;51.280;7.950;2023-04-01T01:42:04;95866.56;;;8.36
72054;BMP280;59918;51.280;7.950;2023-04-01T01:44:31;95857.34;;;8.35
72054;BMP280;59918;51.280;7.950;2023-04-01T01:46:57;95844.56;;;8.35
72054;BMP280;59918;51.280;7.950;2023-04-01T01:49:22;95846.88;;;8.36
72054;BMP280;59918;51.280;7.950;2023-04-01T01:51:48;95849.44;;;8.36
72054;BMP280;59918;51.280;7.950;2023-04-01T01:54:14;95848.41;;;8.37
72054;BMP280;59918;51.280;7.950;2023-04-01T01:56:39;95857.66;;;8.38
72054;BMP280;59918;51.280;7.950;2023-04-01T01:59:07;95865.56;;;8.37
72054;BMP280;59918;51.280;7.950;2023-04-01T02:01:37;95852.22;;;8.35
72054;BMP280;59918;51.280;7.950;2023-04-01T02:04:03;95853.75;;;8.36
72054;BMP280;59918;51.280;7.950;2023-04-01T02:06:29;95844.31;;;8.36
72054;BMP280;59918;51.280;7.950;2023-04-01T02:09:02;95864.81;;;8.36
72054;BMP280;59918;51.280;7.950;2023-04-01T02:16:36;95852.22;;;8.35
72054;BMP280;59918;51.280;7.950;2023-04-01T02:19:02;95855.56;;;8.35
72054;BMP280;59918;51.280;7.950;2023-04-01T02:21:30;95836.63;;;8.36
72054;BMP280;59918;51.280;7.950;2023-04-01T02:23:56;95843.53;;;8.36
72054;BMP280;59918;51.280;7.950;2023-04-01T02:26:22;95854.03;;;8.34
72054;BMP280;59918;51.280;7.950;2023-04-01T02:28:48;95846.34;;;8.34
72054;BMP280;59918;51.280;7.950;2023-04-01T02:31:14;95841.22;;;8.34
72054;BMP280;59918;51.280;7.950;2023-04-01T02:33:39;95863.47;;;8.34
72054;BMP280;59918;51.280;7.950;2023-04-01T02:36:05;95851.91;;;8.31
72054;BMP280;59918;51.280;7.950;2023-04-01T02:38:30;95847.81;;;8.30
72054;BMP280;59918;51.280;7.950;2023-04-01T02:40:57;95853.72;;;8.31
72054;BMP280;59918;51.280;7.950;2023-04-01T02:43:22;95846.03;;;8.31
72054;BMP280;59918;51.280;7.950;2023-04-01T02:45:48;95847.03;;;8.30
72054;BMP280;59918;51.280;7.950;2023-04-01T02:48:16;95848.81;;;8.29
72054;BMP280;59918;51.280;7.950;2023-04-01T02:50:41;95849.84;;;8.28
72054;BMP280;59918;51.280;7.950;2023-04-01T02:53:06;95850.84;;;8.27
72054;BMP280;59918;51.280;7.950;2023-04-01T02:55:32;95855.19;;;8.27
72054;BMP280;59918;51.280;7.950;2023-04-01T02:57:57;95857.75;;;8.27
72054;BMP280;59918;51.280;7.950;2023-04-01T03:00:22;95841.38;;;8.28
72054;BMP280;59918;51.280;7.950;2023-04-01T03:02:48;95867.22;;;8.26
72054;BMP280;59918;51.280;7.950;2023-04-01T03:05:13;95861.31;;;8.26
72054;BMP280;59918;51.280;7.950;2023-04-01T03:07:38;95855.41;;;8.25
72054;BMP280;59918;51.280;7.950;2023-04-01T03:10:03;95853.88;;;8.24
72054;BMP280;59918;51.280;7.950;2023-04-01T03:12:29;95867.69;;;8.23
72054;BMP280;59918;51.280;7.950;2023-04-01T03:14:54;95863.31;;;8.24
72054;BMP280;59918;51.280;7.950;2023-04-01T03:17:19;95867.91;;;8.22
72054;BMP280;59918;51.280;7.950;2023-04-01T03:19:44;95863.81;;;8.21
72054;BMP280;59918;51.280;7.950;2023-04-01T03:22:10;95881.19;;;8.19
72054;BMP280;59918;51.280;7.950;2023-04-01T03:24:35;95867.06;;;8.16
72054;BMP280;59918;51.280;7.950;2023-04-01T03:27:00;95875.00;;;8.15
72054;BMP280;59918;51.280;7.950;2023-04-01T03:29:26;95874.19;;;8.14
72054;BMP280;59918;51.280;7.950;2023-04-01T03:31:51;95869.88;;;8.15
72054;BMP280;59918;51.280;7.950;2023-04-01T03:34:16;95870.63;;;8.15
72054;BMP280;59918;51.280;7.950;2023-04-01T03:36:41;95870.09;;;8.13
72054;BMP280;59918;51.280;7.950;2023-04-01T03:39:06;95875.00;;;8.15
72054;BMP280;59918;51.280;7.950;2023-04-01T03:41:31;95881.09;;;8.14
72054;BMP280;59918;51.280;7.950;2023-04-01T03:43:56;95874.91;;;8.10
72054;BMP280;59918;51.280;7.950;2023-04-01T03:46:22;95907.59;;;8.08
72054;BMP280;59918;51.280;7.950;2023-04-01T03:48:47;95880.91;;;8.04
72054;BMP280;59918;51.280;7.950;2023-04-01T03:51:12;95865.50;;;7.99
72054;BMP280;59918;51.280;7.950;2023-04-01T03:53:37;95862.84;;;7.94
72054;BMP280;59918;51.280;7.950;2023-04-01T03:56:06;95856.66;;;7.90
72054;BMP280;59918;51.280;7.950;2023-04-01T03:58:31;95858.44;;;7.90
72054;BMP280;59918;51.280;7.950;2023-04-01T04:00:56;95853.88;;;7.92
72054;BMP280;59918;51.280;7.950;2023-04-01T04:03:21;95854.63;;;7.92
72054;BMP280;59918;51.280;7.950;2023-04-01T04:05:47;95866.66;;;7.92
72054;BMP280;59918;51.280;7.950;2023-04-01T04:08:12;95862.53;;;7.91
72054;BMP280;59918;51.280;7.950;2023-04-01T04:10:37;95866.88;;;7.90
72054;BMP280;59918;51.280;7.950;2023-04-01T04:13:02;95878.91;;;7.90
72054;BMP280;59918;51.280;7.950;2023-04-01T04:15:27;95863.78;;;7.88
72054;BMP280;59918;51.280;7.950;2023-04-01T04:17:53;95866.88;;;7.90
72054;BMP280;59918;51.280;7.950;2023-04-01T04:20:18;95862.53;;;7.91
72054;BMP280;59918;51.280;7.950;2023-04-01T04:22:43;95863.34;;;7.91
72054;BMP280;59918;51.280;7.950;2023-04-01T04:25:08;95865.63;;;7.93
72054;BMP280;59918;51.280;7.950;2023-04-01T04:27:33;95872.31;;;7.94
72054;BMP280;59918;51.280;7.950;2023-04-01T04:29:58;95867.19;;;7.94
72054;BMP280;59918;51.280;7.950;2023-04-01T04:32:24;95863.63;;;7.95
72054;BMP280;59918;51.280;7.950;2023-04-01T04:34:49;95868.50;;;7.96
72054;BMP280;59918;51.280;7.950;2023-04-01T04:37:14;95879.78;;;7.95
72054;BMP280;59918;51.280;7.950;2023-04-01T04:39:39;95877.75;;;7.97
72054;BMP280;59918;51.280;7.950;2023-04-01T04:42:05;95876.97;;;7.97
72054;BMP280;59918;51.280;7.950;2023-04-01T04:44:30;95880.06;;;7.98
72054;BMP280;59918;51.280;7.950;2023-04-01T04:46:55;95877.28;;;8.00
72054;BMP280;59918;51.280;7.950;2023-04-01T04:49:20;95878.28;;;7.99
72054;BMP280;59918;51.280;7.950;2023-04-01T04:51:46;95878.03;;;8.00
72054;BMP280;59918;51.280;7.950;2023-04-01T04:54:11;95892.94;;;8.03
72054;BMP280;59918;51.280;7.950;2023-04-01T04:56:36;95876.81;;;8.03
72054;BMP280;59918;51.280;7.950;2023-04-01T04:59:01;95887.06;;;8.03
72054;BMP280;59918;51.280;7.950;2023-04-01T05:01:26;95882.72;;;8.03
72054;BMP280;59918;51.280;7.950;2023-04-01T05:03:51;95891.16;;;8.04
72054;BMP280;59918;51.280;7.950;2023-04-01T05:06:17;95881.94;;;8.03
72054;BMP280;59918;51.280;7.950;2023-04-01T05:08:42;95885.81;;;8.05
72054;BMP280;59918;51.280;7.950;2023-04-01T05:11:18;95893.00;;;8.08
72054;BMP280;59918;51.280;7.950;2023-04-01T05:13:43;95884.38;;;8.09
72054;BMP280;59918;51.280;7.950;2023-04-01T05:16:13;95893.59;;;8.10
72054;BMP280;59918;51.280;7.950;2023-04-01T05:18:39;95890.03;;;8.11
72054;BMP280;59918;51.280;7.950;2023-04-01T05:21:04;95896.69;;;8.12
72054;BMP280;59918;51.280;7.950;2023-04-01T05:23:32;95893.13;;;8.13
72054;BMP280;59918;51.280;7.950;2023-04-01T05:25:57;95895.69;;;8.13
72054;BMP280;59918;51.280;7.950;2023-04-01T05:28:22;95898.78;;;8.15
72054;BMP280;59918;51.280;7.950;2023-04-01T05:30:47;95892.19;;;8.19
72054;BMP280;59918;51.280;7.950;2023-04-01T05:33:12;95905.00;;;8.19
72054;BMP280;59918;51.280;7.950;2023-04-01T05:35:38;95897.84;;;8.21
72054;BMP280;59918;51.280;7.950;2023-04-01T05:38:03;95895.31;;;8.21
72054;BMP280;59918;51.280;7.950;2023-04-01T05:40:28;95899.16;;;8.24
72054;BMP280;59918;51.280;7.950;2023-04-01T05:42:53;95907.16;;;8.27
72054;BMP280;59918;51.280;7.950;2023-04-01T05:45:19;95906.72;;;8.30
72054;BMP280;59918;51.280;7.950;2023-04-01T05:47:44;95900.56;;;8.31
72054;BMP280;59918;51.280;7.950;2023-04-01T05:50:09;95906.22;;;8.33
72054;BMP280;59918;51.280;7.950;2023-04-01T05:52:34;95906.00;;;8.35
72054;BMP280;59918;51.280;7.950;2023-04-01T05:54:59;95899.63;;;8.37
72054;BMP280;59918;51.280;7.950;2023-04-01T05:57:24;95907.84;;;8.39
72054;BMP280;59918;51.280;7.950;2023-04-01T05:59:50;95907.84;;;8.39
72054;BMP280;59918;51.280;7.950;2023-04-01T06:02:16;95904.75;;;8.37
72054;BMP280;59918;51.280;7.950;2023-04-01T06:04:42;95901.97;;;8.38
72054;BMP280;59918;51.280;7.950;2023-04-01T06:07:14;95916.63;;;8.43
72054;BMP280;59918;51.280;7.950;2023-04-01T06:09:39;95908.94;;;8.43
72054;BMP280;59918;51.280;7.950;2023-04-01T06:19:50;95911.63;;;8.53
72054;BMP280;59918;51.280;7.950;2023-04-01T06:35:20;95925.19;;;8.70
72054;BMP280;59918;51.280;7.950;2023-04-01T06:45:55;95937.44;;;8.84
72054;BMP280;59918;51.280;7.950;2023-04-01T06:56:10;95930.00;;;9.04
72054;BMP280;59918;51.280;7.950;2023-04-01T06:58:37;95935.97;;;9.09
72054;BMP280;59918;51.280;7.950;2023-04-01T07:01:06;95939.19;;;9.21
72054;BMP280;59918;51.280;7.950;2023-04-01T07:09:00;95932.81;;;9.23
72054;BMP280;59918;51.280;7.950;2023-04-01T07:11:28;95935.91;;;9.25
72054;BMP280;59918;51.280;7.950;2023-04-01T07:14:01;95941.09;;;9.30
72054;BMP280;59918;51.280;7.950;2023-04-01T07:16:38;95946.22;;;9.30
72054;BMP280;59918;51.280;7.950;2023-04-01T07:21:36;95940.50;;;9.23
72054;BMP280;59918;51.280;7.950;2023-04-01T07:24:05;95946.66;;;9.22
72054;BMP280;59918;51.280;7.950;2023-04-01T07:26:33;95948.94;;;9.24
72054;BMP280;59918;51.280;7.950;2023-04-01T07:28:59;95948.94;;;9.24
72054;BMP280;59918;51.280;7.950;2023-04-01T07:34:04;95946.16;;;9.25
72054;BMP280;59918;51.280;7.950;2023-04-01T07:44:22;95958.75;;;9.27
72054;BMP280;59918;51.280;7.950;2023-04-01T07:46:56;95965.41;;;9.28
72054;BMP280;59918;51.280;7.950;2023-04-01T07:51:57;95972.41;;;9.32
72054;BMP280;59918;51.280;7.950;2023-04-01T07:59:37;95962.72;;;9.60
72054;BMP280;59918;51.280;7.950;2023-04-01T08:07:00;95972.97;;;10.08
72054;BMP280;59918;51.280;7.950;2023-04-01T08:12:08;95977.88;;;10.09
72054;BMP280;59918;51.280;7.950;2023-04-01T08:14:38;95983.75;;;10.05
72054;BMP280;59918;51.280;7.950;2023-04-01T08:17:08;95986.34;;;10.10
72054;BMP280;59918;51.280;7.950;2023-04-01T08:22:08;95986.06;;;10.32
72054;BMP280;59918;51.280;7.950;2023-04-01T08:24:44;95998.41;;;10.35
72054;BMP280;59918;51.280;7.950;2023-04-01T08:27:34;95994.75;;;10.31
72054;BMP280;59918;51.280;7.950;2023-04-01T08:29:59;95988.13;;;10.35
72054;BMP280;59918;51.280;7.950;2023-04-01T08:32:36;95984.50;;;10.31
72054;BMP280;59918;51.280;7.950;2023-04-01T08:35:11;95990.59;;;10.25
72054;BMP280;59918;51.280;7.950;2023-04-01T08:37:39;95995.19;;;10.19
72054;BMP280;59918;51.280;7.950;2023-04-01T08:40:21;96001.72;;;10.05
72054;BMP280;59918;51.280;7.950;2023-04-01T08:42:54;96006.13;;;9.88
72054;BMP280;59918;51.280;7.950;2023-04-01T08:56:08;96012.31;;;9.66
72054;BMP280;59918;51.280;7.950;2023-04-01T09:26:44;96043.91;;;10.14
72054;BMP280;59918;51.280;7.950;2023-04-01T09:37:17;96039.34;;;10.47
72054;BMP280;59918;51.280;7.950;2023-04-01T09:44:59;96048.56;;;10.43
72054;BMP280;59918;51.280;7.950;2023-04-01T09:52:20;96058.19;;;10.26
72054;BMP280;59918;51.280;7.950;2023-04-01T09:54:56;96061.53;;;10.26
72054;BMP280;59918;51.280;7.950;2023-04-01T10:03:44;96065.72;;;10.37
72054;BMP280;59918;51.280;7.950;2023-04-01T10:06:41;96071.06;;;10.31
72054;BMP280;59918;51.280;7.950;2023-04-01T10:11:58;96079.44;;;10.21
72054;BMP280;59918;51.280;7.950;2023-04-01T10:14:35;96084.34;;;10.23
72054;BMP280;59918;51.280;7.950;2023-04-01T10:35:20;96103.81;;;10.45
72054;BMP280;59918;51.280;7.950;2023-04-01T10:45:23;96095.47;;;10.33
72054;BMP280;59918;51.280;7.950;2023-04-01T10:48:07;96092.53;;;10.46
72054;BMP280;59918;51.280;7.950;2023-04-01T11:01:20;96105.56;;;10.66
72054;BMP280;59918;51.280;7.950;2023-04-01T11:11:47;96107.59;;;11.26
72054;BMP280;59918;51.280;7.950;2023-04-01T11:25:09;96129.97;;;10.63
72054;BMP280;59918;51.280;7.950;2023-04-01T11:30:11;96141.69;;;10.55
72054;BMP280;59918;51.280;7.950;2023-04-01T11:37:41;96135.03;;;10.58
72054;BMP280;59918;51.280;7.950;2023-04-01T11:40:17;96137.63;;;10.58
72054;BMP280;59918;51.280;7.950;2023-04-01T11:42:49;96139.41;;;10.58
72054;BMP280;59918;51.280;7.950;2023-04-01T11:45:27;96148.50;;;10.65
72054;BMP280;59918;51.280;7.950;2023-04-01T11:55:52;96172.22;;;11.03
72054;BMP280;59918;51.280;7.950;2023-04-01T12:08:27;96159.53;;;12.71
72054;BMP280;59918;51.280;7.950;2023-04-01T12:13:42;96162.81;;;12.56
72054;BMP280;59918;51.280;7.950;2023-04-01T12:19:04;96187.16;;;12.19
72054;BMP280;59918;51.280;7.950;2023-04-01T12:21:36;96185.31;;;12.00
72054;BMP280;59918;51.280;7.950;2023-04-01T12:37:06;96200.84;;;10.81
72054;BMP280;59918;51.280;7.950;2023-04-01T12:44:46;96206.81;;;11.17
72054;BMP280;59918;51.280;7.950;2023-04-01T12:52:51;96217.16;;;10.96
72054;BMP280;59918;51.280;7.950;2023-04-01T12:57:39;96237.06;;;10.58
72054;BMP280;59918;51.280;7.950;2023-04-01T13:26:13;96260.00;;;10.43
72054;BMP280;59918;51.280;7.950;2023-04-01T13:31:12;96251.28;;;10.65
72054;BMP280;59918;51.280;7.950;2023-04-01T13:33:50;96261.81;;;10.64
72054;BMP280;59918;51.280;7.950;2023-04-01T13:44:12;96269.81;;;10.46
72054;BMP280;59918;51.280;7.950;2023-04-01T14:02:46;96282.47;;;10.31
72054;BMP280;59918;51.280;7.950;2023-04-01T14:05:19;96281.88;;;10.24
72054;BMP280;59918;51.280;7.950;2023-04-01T14:13:12;96290.44;;;10.30
72054;BMP280;59918;51.280;7.950;2023-04-01T14:18:37;96301.84;;;10.39
72054;BMP280;59918;51.280;7.950;2023-04-01T14:31:21;96317.56;;;10.42
72054;BMP280;59918;51.280;7.950;2023-04-01T14:34:04;96310.25;;;10.34
72054;BMP280;59918;51.280;7.950;2023-04-01T14:42:03;96312.78;;;10.51
72054;BMP280;59918;51.280;7.950;2023-04-01T14:44:57;96322.75;;;10.47
72054;BMP280;59918;51.280;7.950;2023-04-01T14:47:28;96327.75;;;10.54
72054;BMP280;59918;51.280;7.950;2023-04-01T14:50:02;96327.88;;;10.63
72054;BMP280;59918;51.280;7.950;2023-04-01T14:52:30;96327.81;;;10.80
72054;BMP280;59918;51.280;7.950;2023-04-01T14:54:56;96332.06;;;10.91
72054;BMP280;59918;51.280;7.950;2023-04-01T14:57:24;96326.50;;;10.98
72054;BMP280;59918;51.280;7.950;2023-04-01T15:10:51;96342.50;;;10.63
72054;BMP280;59918;51.280;7.950;2023-04-01T15:13:15;96345.44;;;10.71
72054;BMP280;59918;51.280;7.950;2023-04-01T15:18:32;96356.16;;;10.85
72054;BMP280;59918;51.280;7.950;2023-04-01T15:23:37;96361.56;;;10.88
72054;BMP280;59918;51.280;7.950;2023-04-01T15:26:11;96362.53;;;10.82
72054;BMP280;59918;51.280;7.950;2023-04-01T15:28:39;96375.03;;;10.74
72054;BMP280;59918;51.280;7.950;2023-04-01T15:38:51;96381.41;;;10.50
72054;BMP280;59918;51.280;7.950;2023-04-01T15:44:02;96382.72;;;10.53
72054;BMP280;59918;51.280;7.950;2023-04-01T16:01:45;96407.66;;;10.19
72054;BMP280;59918;51.280;7.950;2023-04-01T16:07:16;96403.94;;;10.11
72054;BMP280;59918;51.280;7.950;2023-04-01T16:14:44;96406.81;;;10.14
72054;BMP280;59918;51.280;7.950;2023-04-01T16:17:17;96416.84;;;10.16
72054;BMP280;59918;51.280;7.950;2023-04-01T16:19:52;96413.28;;;10.17
72054;BMP280;59918;51.280;7.950;2023-04-01T16:22:30;96422.78;;;10.16
72054;BMP280;59918;51.280;7.950;2023-04-01T16:27:42;96420.97;;;10.17
72054;BMP280;59918;51.280;7.950;2023-04-01T16:37:39;96434.44;;;10.07
72054;BMP280;59918;51.280;7.950;2023-04-01T16:43:04;96440.16;;;9.98
72054;BMP280;59918;51.280;7.950;2023-04-01T16:45:45;96447.88;;;9.98
72054;BMP280;59918;51.280;7.950;2023-04-01T16:48:20;96450.59;;;9.91
72054;BMP280;59918;51.280;7.950;2023-04-01T16:51:00;96451.81;;;9.89
72054;BMP280;59918;51.280;7.950;2023-04-01T16:53:47;96456.94;;;9.89
72054;BMP280;59918;51.280;7.950;2023-04-01T17:01:12;96475.13;;;9.87
72054;BMP280;59918;51.280;7.950;2023-04-01T17:03:40;96476.69;;;9.88
72054;BMP280;59918;51.280;7.950;2023-04-01T17:13:40;96482.09;;;9.76
72054;BMP280;59918;51.280;7.950;2023-04-01T17:18:49;96487.38;;;9.69
72054;BMP280;59918;51.280;7.950;2023-04-01T17:23:45;96498.19;;;9.71
72054;BMP280;59918;51.280;7.950;2023-04-01T17:28:46;96498.66;;;9.68
72054;BMP280;59918;51.280;7.950;2023-04-01T17:34:02;96506.56;;;9.67
72054;BMP280;59918;51.280;7.950;2023-04-01T17:39:04;96521.97;;;9.67
72054;BMP280;59918;51.280;7.950;2023-04-01T17:41:41;96520.66;;;9.64
72054;BMP280;59918;51.280;7.950;2023-04-01T17:46:45;96532.91;;;9.62
72054;BMP280;59918;51.280;7.950;2023-04-01T17:59:17;96549.66;;;9.65
72054;BMP280;59918;51.280;7.950;2023-04-01T18:01:48;96555.03;;;9.63
72054;BMP280;59918;51.280;7.950;2023-04-01T18:11:49;96567.97;;;9.57
72054;BMP280;59918;51.280;7.950;2023-04-01T18:19:17;96583.81;;;9.54
72054;BMP280;59918;51.280;7.950;2023-04-01T18:21:53;96582.03;;;9.54
72054;BMP280;59918;51.280;7.950;2023-04-01T18:27:04;96594.31;;;9.52
72054;BMP280;59918;51.280;7.950;2023-04-01T18:29:35;96598.66;;;9.52
72054;BMP280;59918;51.280;7.950;2023-04-01T18:32:17;96600.69;;;9.50
72054;BMP280;59918;51.280;7.950;2023-04-01T18:34:59;96615.06;;;9.51
72054;BMP280;59918;51.280;7.950;2023-04-01T18:37:27;96613.72;;;9.48
72054;BMP280;59918;51.280;7.950;2023-04-01T18:42:33;96617.63;;;9.51
72054;BMP280;59918;51.280;7.950;2023-04-01T18:45:09;96623.31;;;9.53
72054;BMP280;59918;51.280;7.950;2023-04-01T18:50:11;96627.44;;;9.54
72054;BMP280;59918;51.280;7.950;2023-04-01T18:52:42;96634.81;;;9.50
72054;BMP280;59918;51.280;7.950;2023-04-01T18:57:52;96646.31;;;9.48
72054;BMP280;59918;51.280;7.950;2023-04-01T19:00:21;96649.63;;;9.48
72054;BMP280;59918;51.280;7.950;2023-04-01T19:02:50;96654.00;;;9.48
72054;BMP280;59918;51.280;7.950;2023-04-01T19:05:23;96652.44;;;9.47
72054;BMP280;59918;51.280;7.950;2023-04-01T19:07:53;96656.34;;;9.49
72054;BMP280;59918;51.280;7.950;2023-04-01T19:10:27;96660.69;;;9.49
72054;BMP280;59918;51.280;7.950;2023-04-01T19:20:32;96682.56;;;9.51
72054;BMP280;59918;51.280;7.950;2023-04-01T19:23:31;96685.91;;;9.52
72054;BMP280;59918;51.280;7.950;2023-04-01T19:26:00;96689.25;;;9.52
72054;BMP280;59918;51.280;7.950;2023-04-01T19:30:55;96696.94;;;9.52
72054;BMP280;59918;51.280;7.950;2023-04-01T19:38:37;96701.31;;;9.52
72054;BMP280;59918;51.280;7.950;2023-04-01T19:46:07;96706.44;;;9.52
72054;BMP280;59918;51.280;7.950;2023-04-01T19:56:36;96717.03;;;9.55
72054;BMP280;59918;51.280;7.950;2023-04-01T19:59:16;96733.44;;;9.54
72054;BMP280;59918;51.280;7.950;2023-04-01T20:01:51;96733.66;;;9.53
72054;BMP280;59918;51.280;7.950;2023-04-01T20:04:29;96741.59;;;9.51
72054;BMP280;59918;51.280;7.950;2023-04-01T20:09:46;96748.72;;;9.49
72054;BMP280;59918;51.280;7.950;2023-04-01T20:14:52;96759.19;;;9.48
72054;BMP280;59918;51.280;7.950;2023-04-01T20:24:49;96772.34;;;9.40
72054;BMP280;59918;51.280;7.950;2023-04-01T20:33:10;96783.25;;;9.36
72054;BMP280;59918;51.280;7.950;2023-04-01T20:40:34;96790.38;;;9.34
72054;BMP280;59918;51.280;7.950;2023-04-01T20:43:11;96794.53;;;9.35
72054;BMP280;59918;51.280;7.950;2023-04-01T20:51:07;96798.66;;;9.36
72054;BMP280;59918;51.280;7.950;2023-04-01T20:53:36;96803.78;;;9.36
72054;BMP280;59918;51.280;7.950;2023-04-01T20:56:23;96805.56;;;9.35
72054;BMP280;59918;51.280;7.950;2023-04-01T21:37:16;96869.50;;;9.37
72054;BMP280;59918;51.280;7.950;2023-04-01T21:44:45;96878.31;;;9.41
72054;BMP280;59918;51.280;7.950;2023-04-01T21:57:57;96900.41;;;9.42
72054;BMP280;59918;51.280;7.950;2023-04-01T22:00:30;96909.47;;;9.44
72054;BMP280;59918;51.280;7.950;2023-04-01T22:03:35;96907.47;;;9.46
72054;BMP280;59918;51.280;7.950;2023-04-01T22:05:53;96917.53;;;9.47
72054;BMP280;59918;51.280;7.950;2023-04-01T22:10:58;96925.22;;;9.47
72054;BMP280;59918;51.280;7.950;2023-04-01T22:13:50;96923.63;;;9.46
72054;BMP280;59918;51.280;7.950;2023-04-01T22:18:46;96941.59;;;9.46
72054;BMP280;59918;51.280;7.950;2023-04-01T22:23:46;96945.75;;;9.47
72054;BMP280;59918;51.280;7.950;2023-04-01T22:29:07;96961.16;;;9.47
72054;BMP280;59918;51.280;7.950;2023-04-01T22:31:35;96957.56;;;9.48
72054;BMP280;59918;51.280;7.950;2023-04-01T22:36:32;96969.81;;;9.46
72054;BMP280;59918;51.280;7.950;2023-04-01T22:43:54;96967.47;;;9.45
72054;BMP280;59918;51.280;7.950;2023-04-01T22:46:44;96972.03;;;9.43
72054;BMP280;59918;51.280;7.950;2023-04-01T22:49:17;96977.16;;;9.43
72054;BMP280;59918;51.280;7.950;2023-04-01T22:51:43;96979.94;;;9.42
72054;BMP280;59918;51.280;7.950;2023-04-01T22:56:49;96986.09;;;9.41
72054;BMP280;59918;51.280;7.950;2023-04-01T23:02:23;96990.44;;;9.40
72054;BMP280;59918;51.280;7.950;2023-04-01T23:04:31;96994.34;;;9.43
72054;BMP280;59918;51.280;7.950;2023-04-01T23:07:00;96993.91;;;9.45
72054;BMP280;59918;51.280;7.950;2023-04-01T23:09:30;97005.75;;;9.46
72054;BMP280;59918;51.280;7.950;2023-04-01T23:12:01;97007.34;;;9.47
72054;BMP280;59918;51.280;7.950;2023-04-01T23:14:34;97020.72;;;9.49
72054;BMP280;59918;51.280;7.950;2023-04-01T23:19:29;97023.88;;;9.51
72054;BMP280;59918;51.280;7.950;2023-04-01T23:27:18;97037.84;;;9.55
72054;BMP280;59918;51.280;7.950;2023-04-01T23:29:45;97039.38;;;9.56
72054;BMP280;59918;51.280;7.950;2023-04-01T23:32:14;97044.53;;;9.56
72054;BMP280;59918;51.280;7.950;2023-04-01T23:34:40;97051.44;;;9.56
72054;BMP280;59918;51.280;7.950;2023-04-01T23:37:11;97060.69;;;9.57
72054;BMP280;59918;51.280;7.950;2023-04-01T23:44:46;97064.41;;;9.61
72054;BMP280;59918;51.280;7.950;2023-04-01T23:47:17;97070.34;;;9.61
72054;BMP280;59918;51.280;7.950;2023-04-01T23:49:47;97073.13;;;9.60
72054;BMP280;59918;51.280;7.950;2023-04-01T23:52:13;97080.44;;;9.56
72054;BMP280;59918;51.280;7.950;2023-04-01T23:54:43;97086.22;;;9.52
72054;BMP280;59918;51.280;7.950;2023-04-01T23:57:13;97087.28;;;9.45
72054;BMP280;59918;51.280;7.950;2023-04-01T23:59:38;97094.06;;;9.39
